Latest Coastal Weather Observations for Noarlunga

IDS60701

Issued at 4:51 pm CST Wednesday 1 June 2016 (issued every 10 minutes, with the page automatically refreshed every 10 minutes)

About coastal observations | Map of coastal stations | Coastal observations for SA | Marine services | Other Formats
Station Details ID: 023885 Name: NOARLUNGA Lat: -35.16 Lon: 138.51 Height: 55.0 m
Data from the previous 72 hours. | See also: Recent months at Noarlunga
Date/Time
CST
Temp

°C
Wind Pressure Rain
since 9am
mm
Weather Cloud Vis
km
Sea
Height
m
Swell
Dir
 
Speed
knots
Gust
knots
hPa Trend Height
m
Period
s
Dir
01/04:30pm 16.6 ESE 5 7 - - 0.0 - - - - - - -
01/04:00pm 17.0 SSW 2 3 - - 0.0 - - - - - - -
01/03:30pm 17.5 WSW 3 4 - - 0.0 - - - - - - -
01/03:00pm 17.4 WNW 4 6 - - 0.0 - - - - - - -
01/02:30pm 17.8 WNW 5 7 - - 0.0 - - - - - - -
01/02:00pm 17.9 WNW 5 8 - - 0.0 - - - - - - -
01/01:30pm 18.0 WNW 5 8 - - 0.0 - - - - - - -
01/01:00pm 17.7 NW 6 9 - - 0.0 - - - - - - -
01/12:30pm 17.6 NNW 6 8 - - 0.0 - - - - - - -
01/12:00pm 17.8 NNW 6 8 - - 0.0 - - - - - - -
01/11:30am 17.8 N 6 9 - - 0.0 - - - - - - -
01/11:00am 17.6 N 4 7 - - 0.0 - - - - - - -
01/10:30am 17.2 NNE 5 8 - - 0.0 - - - - - - -
01/10:00am 16.4 NE 6 8 - - 0.0 - - - - - - -
01/09:30am 15.7 NE 5 8 - - 0.0 - - - - - - -
01/09:00am 15.1 NE 3 5 - - 0.2 - - - - - - -
01/08:30am 14.1 NE 1 3 - - 0.2 - - - - - - -
01/08:00am 12.5 NE 3 5 - - 0.2 - - - - - - -
01/07:30am 12.0 NE 4 5 - - 0.2 - - - - - - -
01/07:00am 12.2 NE 3 5 - - 0.2 - - - - - - -
01/06:30am 12.6 NE 5 6 - - 0.2 - - - - - - -
01/06:00am 12.8 NE 6 8 - - 0.2 - - - - - - -
01/05:30am 12.6 NE 6 9 - - 0.2 - - - - - - -
01/05:00am 12.6 NE 5 7 - - 0.2 - - - - - - -
01/04:30am 12.2 NE 4 5 - - 0.2 - - - - - - -
01/04:00am 12.6 NE 4 6 - - 0.2 - - - - - - -
01/03:30am 13.1 NE 6 8 - - 0.2 - - - - - - -
01/03:00am 13.2 NNE 5 7 - - 0.2 - - - - - - -
01/02:30am 13.1 NE 5 6 - - 0.2 - - - - - - -
01/02:00am 12.8 ENE 5 6 - - 0.2 - - - - - - -
01/01:30am 13.1 NE 6 8 - - 0.2 - - - - - - -
01/01:00am 13.4 NNE 6 8 - - 0.2 - - - - - - -
01/12:30am 13.7 NE 5 7 - - 0.2 - - - - - - -
01/12:00am 13.9 NE 7 9 - - 0.2 - - - - - - -
 
Date/Time
CST
Temp

°C
Wind Pressure Rain
since 9am
mm
Weather Cloud Vis
km
Sea
Height
m
Swell
Dir
 
Speed
knots
Gust
knots
hPa Trend Height
m
Period
s
Dir
31/11:30pm 14.0 NE 6 7 - - 0.2 - - - - - - -
31/11:00pm 13.8 ENE 4 7 - - 0.2 - - - - - - -
31/10:30pm 13.9 ENE 5 7 - - 0.2 - - - - - - -
31/10:00pm 13.9 ENE 5 7 - - 0.2 - - - - - - -
31/09:30pm 14.0 ENE 4 5 - - 0.2 - - - - - - -
31/09:00pm 14.0 ENE 4 6 - - 0.2 Recent precip. - - - - - -
31/08:30pm 14.2 NE 4 7 - - 0.0 - - - - - - -
31/08:00pm 14.4 ENE 5 7 - - 0.0 - - - - - - -
31/07:30pm 14.9 ENE 5 8 - - 0.0 - - - - - - -
31/07:00pm 14.8 ENE 4 6 - - 0.0 - - - - - - -
31/06:30pm 15.1 NE 3 4 - - 0.0 - - - - - - -
31/06:00pm 15.8 ENE 2 3 - - 0.0 - - - - - - -
31/05:30pm 16.3 NNE 2 3 - - 0.0 - - - - - - -
31/05:00pm 16.7 NNE 4 7 - - 0.0 - - - - - - -
31/04:30pm 16.8 NE 5 7 - - 0.0 - - - - - - -
31/04:00pm 16.8 N 5 6 - - 0.0 - - - - - - -
31/03:30pm 17.1 N 6 8 - - 0.0 - - - - - - -
31/03:00pm 17.6 N 6 9 - - 0.0 - - - - - - -
31/02:30pm 16.9 NNW 8 12 - - 0.0 - - - - - - -
31/02:00pm 17.8 N 8 13 - - 0.0 - - - - - - -
31/01:30pm 17.6 N 9 12 - - 0.0 - - - - - - -
31/01:00pm 16.9 N 10 14 - - 0.0 - - - - - - -
31/12:30pm 16.9 NNW 10 16 - - 0.0 - - - - - - -
31/12:00pm 17.6 NNE 9 14 - - 0.0 - - - - - - -
31/11:30am 17.5 N 10 14 - - 0.0 - - - - - - -
31/11:00am 17.1 N 10 18 - - 0.0 - - - - - - -
31/10:30am 16.6 N 11 15 - - 0.0 - - - - - - -
31/10:00am 16.8 NNE 10 15 - - 0.0 - - - - - - -
31/09:30am 16.8 NNE 8 12 - - 0.0 - - - - - - -
31/09:00am 16.8 NNE 8 14 - - 0.8 - - - - - - -
31/08:30am 15.6 NNE 8 12 - - 0.8 - - - - - - -
31/08:00am 15.1 NNE 7 13 - - 0.8 - - - - - - -
31/07:30am 15.3 NE 7 11 - - 0.8 - - - - - - -
31/07:00am 15.2 NE 8 13 - - 0.8 - - - - - - -
31/06:30am 14.7 NE 7 11 - - 0.8 - - - - - - -
31/06:00am 14.2 NE 7 10 - - 0.8 - - - - - - -
31/05:30am 14.6 NE 7 10 - - 0.8 - - - - - - -
31/05:00am 15.0 NNE 7 13 - - 0.8 - - - - - - -
31/04:30am 14.7 NE 6 8 - - 0.8 - - - - - - -
31/04:00am 14.4 NE 6 9 - - 0.8 - - - - - - -
31/03:30am 14.8 NE 8 10 - - 0.8 - - - - - - -
31/03:00am 15.3 NE 7 10 - - 0.8 - - - - - - -
31/02:30am 15.3 NNE 7 10 - - 0.8 - - - - - - -
31/02:00am 15.3 NE 8 11 - - 0.8 - - - - - - -
31/01:30am 15.2 NNE 8 15 - - 0.8 - - - - - - -
31/01:00am 15.1 NNE 7 10 - - 0.8 - - - - - - -
31/12:30am 15.1 NE 8 13 - - 0.8 - - - - - - -
31/12:00am 15.0 NE 8 10 - - 0.8 - - - - - - -
 
Date/Time
CST
Temp

°C
Wind Pressure Rain
since 9am
mm
Weather Cloud Vis
km
Sea
Height
m
Swell
Dir
 
Speed
knots
Gust
knots
hPa Trend Height
m
Period
s
Dir
30/11:30pm 14.9 NE 7 11 - - 0.8 - - - - - - -
30/11:00pm 15.1 NE 8 12 - - 0.8 - - - - - - -
30/10:30pm 14.8 NE 7 11 - - 0.8 - - - - - - -
30/10:00pm 14.9 NE 7 11 - - 0.8 - - - - - - -
30/09:30pm 15.1 NE 8 12 - - 0.8 - - - - - - -
30/09:00pm 14.9 NE 8 12 - - 0.8 - - - - - - -
30/08:30pm 14.7 NE 7 12 - - 0.8 - - - - - - -
30/08:00pm 14.3 ENE 5 8 - - 0.8 - - - - - - -
30/07:30pm 13.2 ENE 4 6 - - 0.8 - - - - - - -
30/07:00pm 13.3 ENE 3 6 - - 0.8 - - - - - - -
30/06:30pm 13.5 E 3 4 - - 0.8 - - - - - - -
30/06:00pm 14.3 E 2 3 - - 0.8 - - - - - - -
30/05:30pm 15.2 NNE 3 5 - - 0.8 - - - - - - -
30/05:00pm 15.8 NNE 5 7 - - 0.8 - - - - - - -
30/04:30pm 16.2 N 5 8 - - 0.8 - - - - - - -
30/04:00pm 16.5 N 9 13 - - 0.8 - - - - - - -
30/03:30pm 16.9 N 10 13 - - 0.8 - - - - - - -
30/03:00pm 17.3 N 12 19 - - 0.8 - - - - - - -
30/02:30pm 17.0 N 13 22 - - 0.8 - - - - - - -
30/02:00pm 17.1 N 13 21 - - 0.8 - - - - - - -
30/01:30pm 16.5 N 13 21 - - 0.8 - - - - - - -
30/01:00pm 16.4 NNE 14 20 - - 0.8 - - - - - - -
30/12:30pm 16.2 NNE 16 22 - - 0.8 - - - - - - -
30/12:00pm 16.2 NNE 13 20 - - 0.8 - - - - - - -
30/11:30am 14.9 NNE 11 17 - - 0.8 - - - - - - -
30/11:00am 14.1 NNE 9 13 - - 0.8 - - - - - - -
30/10:30am 13.4 NE 10 14 - - 0.6 - - - - - - -
30/10:00am 14.0 NNE 10 13 - - 0.2 - - - - - - -
30/09:30am 14.4 NE 8 12 - - 0.0 - - - - - - -
30/09:00am 13.2 NE 9 15 - - 1.0 Rain - - - - - -
30/08:30am 13.0 NE 10 17 - - 0.8 - - - - - - -
30/08:00am 12.6 NE 10 16 - - 0.8 - - - - - - -
30/07:30am 14.1 NNE 9 14 - - 0.2 - - - - - - -
30/07:00am 14.9 NNE 9 15 - - 0.0 - - - - - - -
30/06:30am 14.7 NNE 10 15 - - 0.0 - - - - - - -
30/06:00am 14.3 NE 7 13 - - 0.0 - - - - - - -
30/05:30am 14.0 NE 6 9 - - 0.0 - - - - - - -
30/05:00am 14.2 NNE 6 10 - - 0.0 - - - - - - -
30/04:30am 14.2 NE 8 13 - - 0.0 - - - - - - -
30/04:00am 14.1 NNE 8 13 - - 0.0 - - - - - - -
30/03:30am 13.8 NE 8 11 - - 0.0 - - - - - - -
30/03:00am 13.8 NE 9 13 - - 0.0 - - - - - - -
30/02:30am 13.9 NNE 8 12 - - 0.0 - - - - - - -
30/02:00am 14.3 NNE 9 13 - - 0.0 - - - - - - -
30/01:30am 14.5 NNE 9 16 - - 0.0 - - - - - - -
30/01:00am 14.4 NE 11 16 - - 0.0 - - - - - - -
30/12:30am 13.7 NE 9 13 - - 0.0 - - - - - - -
30/12:00am 11.6 ENE 5 7 - - 0.0 - - - - - - -
 
Date/Time
CST
Temp

°C
Wind Pressure Rain
since 9am
mm
Weather Cloud Vis
km
Sea
Height
m
Swell
Dir
 
Speed
knots
Gust
knots
hPa Trend Height
m
Period
s
Dir
29/11:30pm 12.0 ENE 6 7 - - 0.0 - - - - - - -
29/11:00pm 12.1 ENE 7 9 - - 0.0 - - - - - - -
29/10:30pm 12.0 ENE 6 8 - - 0.0 - - - - - - -
29/10:00pm 12.1 ENE 6 9 - - 0.0 - - - - - - -
29/09:30pm 12.1 ENE 7 8 - - 0.0 - - - - - - -
29/09:00pm 11.8 ENE 7 9 - - 0.0 - - - - - - -
29/08:30pm 11.8 ENE 6 7 - - 0.0 - - - - - - -
29/08:00pm 11.9 ENE 5 7 - - 0.0 - - - - - - -
29/07:30pm 12.0 ENE 5 7 - - 0.0 - - - - - - -
29/07:00pm 12.5 ENE 5 7 - - 0.0 - - - - - - -
29/06:30pm 12.9 E 5 7 - - 0.0 - - - - - - -
29/06:00pm 13.2 E 5 6 - - 0.0 - - - - - - -
29/05:30pm 14.1 ENE 5 8 - - 0.0 - - - - - - -
29/05:00pm 14.7 NNE 7 11 - - 0.0 - - - - - - -

Other Formats:

Comma delimited format used in spreadsheet applications
http://www.bom.gov.au/fwo/IDS60701/IDS60701.94808.axf

JavaScript Object Notation format (JSON) in row-major order
http://www.bom.gov.au/fwo/IDS60701/IDS60701.94808.json